createdAt,value
2022-08-10T00:00:36.380Z,1007.24
2022-08-10T00:01:36.519Z,1007.19
2022-08-10T00:02:36.570Z,1007.27
2022-08-10T00:03:36.337Z,1007.28
2022-08-10T00:04:36.338Z,1007.23
2022-08-10T00:05:43.051Z,1007.22
2022-08-10T00:06:37.307Z,1007.22
2022-08-10T00:07:36.310Z,1007.22
2022-08-10T00:08:36.289Z,1007.25
2022-08-10T00:09:50.010Z,1007.20
2022-08-10T00:10:37.262Z,1007.26
2022-08-10T00:11:36.255Z,1007.17
2022-08-10T00:12:53.343Z,1007.22
2022-08-10T00:13:37.242Z,1007.20
2022-08-10T00:14:36.222Z,1007.23
2022-08-10T00:15:52.795Z,1007.20
2022-08-10T00:16:37.200Z,1007.21
2022-08-10T00:17:36.181Z,1007.20
2022-08-10T00:18:36.447Z,1007.23
2022-08-10T00:20:03.524Z,1007.27
2022-08-10T00:20:37.150Z,1007.26
2022-08-10T00:21:36.139Z,1007.22
2022-08-10T00:22:36.205Z,1007.29
2022-08-10T00:23:37.133Z,1007.20
2022-08-10T00:24:39.134Z,1007.22
2022-08-10T00:25:37.091Z,1007.17
2022-08-10T00:27:52.497Z,1007.16
2022-08-10T00:28:01.679Z,1007.18
2022-08-10T00:28:37.052Z,1007.17
2022-08-10T00:29:36.062Z,1007.21
2022-08-10T00:30:36.033Z,1007.15
2022-08-10T00:31:58.077Z,1007.16
2022-08-10T00:32:37.012Z,1007.13
2022-08-10T00:33:36.000Z,1007.13
2022-08-10T00:34:36.016Z,1007.18
2022-08-10T00:35:35.973Z,1007.16
2022-08-10T00:36:35.972Z,1007.17
2022-08-10T00:37:35.953Z,1007.19
2022-08-10T00:38:35.943Z,1007.12
2022-08-10T00:39:39.300Z,1007.15
2022-08-10T00:40:38.064Z,1007.10
2022-08-10T00:41:35.905Z,1007.13
2022-08-10T00:42:36.143Z,1007.10
2022-08-10T00:43:35.884Z,1007.11
2022-08-10T00:44:35.874Z,1007.08
2022-08-10T00:45:35.893Z,1007.09
2022-08-10T00:46:35.854Z,1007.08
2022-08-10T00:47:37.739Z,1007.09
2022-08-10T00:48:35.834Z,1007.11
2022-08-10T00:49:35.815Z,1007.06
2022-08-10T00:50:35.818Z,1007.06
2022-08-10T00:51:47.914Z,1007.05
2022-08-10T00:52:36.967Z,1007.11
2022-08-10T00:53:35.775Z,1007.02
2022-08-10T00:54:35.766Z,1007.05
2022-08-10T00:57:14.669Z,1007.04
2022-08-10T00:57:16.560Z,1007.01
2022-08-10T00:57:36.727Z,1006.99
2022-08-10T00:58:35.724Z,1006.96
2022-08-10T00:59:35.706Z,1006.99
2022-08-10T01:00:36.699Z,1006.95
2022-08-10T01:02:09.179Z,1007.01
2022-08-10T01:02:36.910Z,1007.00
2022-08-10T01:04:39.568Z,1006.97
2022-08-10T01:04:58.982Z,1006.95
2022-08-10T01:05:36.636Z,1006.95
2022-08-10T01:06:36.626Z,1006.97
2022-08-10T01:07:35.616Z,1006.93
2022-08-10T01:08:35.627Z,1006.98
2022-08-10T01:09:35.587Z,1006.94
2022-08-10T01:10:35.587Z,1006.95
2022-08-10T01:11:42.355Z,1006.96
2022-08-10T01:12:40.517Z,1007.01
2022-08-10T01:13:35.548Z,1006.93
2022-08-10T01:14:35.558Z,1006.94
2022-08-10T01:15:35.518Z,1006.97
2022-08-10T01:16:35.518Z,1006.93
2022-08-10T01:17:50.769Z,1006.93
2022-08-10T01:18:37.963Z,1006.96
2022-08-10T01:19:35.477Z,1006.89
2022-08-10T01:20:35.498Z,1006.94
2022-08-10T01:21:35.458Z,1007.00
2022-08-10T01:22:35.586Z,1006.98
2022-08-10T01:23:35.437Z,1007.01
2022-08-10T01:24:35.429Z,1007.05
2022-08-10T01:25:35.417Z,1007.02
2022-08-10T01:26:37.174Z,1006.98
2022-08-10T01:27:35.388Z,1006.93
2022-08-10T01:28:35.381Z,1006.93
2022-08-10T01:29:35.370Z,1007.02
2022-08-10T01:30:35.361Z,1007.00
2022-08-10T01:31:35.347Z,1006.95
2022-08-10T01:32:35.516Z,1007.02
2022-08-10T01:34:01.957Z,1007.01
2022-08-10T01:34:36.308Z,1006.94
2022-08-10T01:35:35.300Z,1006.99
2022-08-10T01:36:35.290Z,1007.03
2022-08-10T01:37:35.277Z,1007.05
2022-08-10T01:38:35.280Z,1006.96
2022-08-10T01:39:35.316Z,1006.99
2022-08-10T01:40:35.241Z,1006.93
2022-08-10T01:41:40.889Z,1006.97
2022-08-10T01:42:36.412Z,1007.03
2022-08-10T01:43:35.231Z,1006.98
2022-08-10T01:44:35.201Z,1006.93
2022-08-10T01:45:44.558Z,1006.90
2022-08-10T01:46:36.178Z,1006.95
2022-08-10T01:47:36.913Z,1006.97
2022-08-10T01:48:35.150Z,1006.96
2022-08-10T01:49:35.170Z,1006.98
2022-08-10T01:50:35.130Z,1006.99
2022-08-10T01:51:36.120Z,1007.03
2022-08-10T01:52:35.180Z,1007.04
2022-08-10T01:53:41.135Z,1006.97
2022-08-10T01:54:36.101Z,1006.97
2022-08-10T01:55:35.071Z,1006.95
2022-08-10T01:56:35.064Z,1007.00
2022-08-10T01:57:35.051Z,1006.97
2022-08-10T01:58:35.039Z,1007.01
2022-08-10T01:59:35.033Z,1006.94
2022-08-10T02:00:35.031Z,1006.97
2022-08-10T02:01:35.069Z,1006.93
2022-08-10T02:02:35.096Z,1007.00
2022-08-10T02:03:34.980Z,1007.02
2022-08-10T02:04:35.973Z,1007.03
2022-08-10T02:05:35.003Z,1007.02
2022-08-10T02:06:34.942Z,1006.99
2022-08-10T02:07:37.343Z,1007.03
2022-08-10T02:08:34.922Z,1007.03
2022-08-10T02:09:34.912Z,1007.04
2022-08-10T02:10:34.903Z,1007.04
2022-08-10T02:12:05.900Z,1006.97
2022-08-10T02:12:36.048Z,1007.01
2022-08-10T02:13:34.870Z,1007.06
2022-08-10T02:14:34.974Z,1007.03
2022-08-10T02:15:34.851Z,1006.98
2022-08-10T02:16:34.832Z,1007.01
2022-08-10T02:17:57.821Z,1006.96
2022-08-10T02:18:35.802Z,1007.04
2022-08-10T02:19:34.802Z,1007.04
2022-08-10T02:20:34.783Z,1006.98
2022-08-10T02:21:34.782Z,1007.00
2022-08-10T02:22:37.038Z,1007.04
2022-08-10T02:23:34.798Z,1007.10
2022-08-10T02:24:34.742Z,1007.06
2022-08-10T02:25:41.002Z,1007.06
2022-08-10T02:26:35.714Z,1007.08
2022-08-10T02:27:34.713Z,1007.09
2022-08-10T02:28:34.694Z,1007.08
2022-08-10T02:29:34.706Z,1007.07
2022-08-10T02:30:34.673Z,1007.08
2022-08-10T02:31:34.663Z,1007.14
2022-08-10T02:32:47.666Z,1007.09
2022-08-10T02:33:36.893Z,1007.10
2022-08-10T02:34:34.645Z,1007.10
2022-08-10T02:35:54.415Z,1007.16
2022-08-10T02:36:35.604Z,1007.14
2022-08-10T02:37:34.606Z,1007.14
2022-08-10T02:38:58.597Z,1007.16
2022-08-10T02:39:35.662Z,1007.12
2022-08-10T02:42:18.427Z,1007.14
2022-08-10T02:45:00.546Z,1007.15
2022-08-10T02:45:17.971Z,1007.17
2022-08-10T02:45:19.060Z,1007.13
2022-08-10T02:45:27.644Z,1007.15
2022-08-10T02:45:35.765Z,1007.24
2022-08-10T02:46:34.486Z,1007.29
2022-08-10T02:47:51.672Z,1007.24
2022-08-10T02:48:35.465Z,1007.23
2022-08-10T02:49:34.465Z,1007.27
2022-08-10T02:50:34.445Z,1007.30
2022-08-10T02:52:06.497Z,1007.29
2022-08-10T02:52:35.612Z,1007.29
2022-08-10T02:53:55.070Z,1007.32
2022-08-10T02:54:35.397Z,1007.25
2022-08-10T02:55:34.395Z,1007.33
2022-08-10T02:56:34.399Z,1007.26
2022-08-10T02:57:34.367Z,1007.21
2022-08-10T02:58:34.355Z,1007.24
2022-08-10T02:59:38.546Z,1007.24
2022-08-10T03:00:35.338Z,1007.21
2022-08-10T03:01:34.381Z,1007.22
2022-08-10T03:02:34.602Z,1007.24
2022-08-10T03:03:34.333Z,1007.25
2022-08-10T03:04:56.022Z,1007.27
2022-08-10T03:05:35.278Z,1007.23
2022-08-10T03:06:34.264Z,1007.17
2022-08-10T03:07:42.840Z,1007.18
2022-08-10T03:08:35.287Z,1007.22
2022-08-10T03:09:34.236Z,1007.15
2022-08-10T03:10:34.217Z,1007.16
2022-08-10T03:12:35.170Z,1007.19
2022-08-10T03:12:38.160Z,1007.15
2022-08-10T03:13:34.187Z,1007.17
2022-08-10T03:14:34.196Z,1007.17
2022-08-10T03:15:34.165Z,1007.15
2022-08-10T03:16:34.147Z,1007.14
2022-08-10T03:17:34.138Z,1007.13
2022-08-10T03:18:34.129Z,1007.12
2022-08-10T03:20:33.545Z,1007.18
2022-08-10T03:20:39.304Z,1007.21
2022-08-10T03:21:35.099Z,1007.14
2022-08-10T03:22:34.153Z,1007.15
2022-08-10T03:23:34.077Z,1007.17
2022-08-10T03:24:34.058Z,1007.15
2022-08-10T03:25:34.078Z,1007.15
2022-08-10T03:26:34.039Z,1007.21
2022-08-10T03:27:34.029Z,1007.15
2022-08-10T03:28:34.018Z,1007.19
2022-08-10T03:30:29.324Z,1007.12
2022-08-10T03:30:35.098Z,1007.15
2022-08-10T03:31:33.999Z,1007.16
2022-08-10T03:32:35.114Z,1007.13
2022-08-10T03:33:33.965Z,1007.12
2022-08-10T03:34:33.973Z,1007.12
2022-08-10T03:35:33.939Z,1007.12
2022-08-10T03:36:42.445Z,1007.07
2022-08-10T03:37:34.917Z,1007.07
2022-08-10T03:38:33.900Z,1007.06
2022-08-10T03:39:33.944Z,1007.07
2022-08-10T03:40:44.919Z,1007.06
2022-08-10T03:41:35.615Z,1007.09
2022-08-10T03:42:33.926Z,1007.01
2022-08-10T03:43:33.850Z,1007.05
2022-08-10T03:44:33.839Z,1006.97
2022-08-10T03:45:55.531Z,1007.07
2022-08-10T03:46:34.818Z,1006.99
2022-08-10T03:47:33.830Z,1007.00
2022-08-10T03:48:48.492Z,1007.05
2022-08-10T03:49:34.780Z,1007.04
2022-08-10T03:50:51.375Z,1006.99
2022-08-10T03:51:34.760Z,1006.96
2022-08-10T03:52:33.740Z,1007.00
2022-08-10T03:54:03.257Z,1007.07
2022-08-10T03:54:34.721Z,1007.01
2022-08-10T03:56:30.496Z,1007.11
2022-08-10T03:56:34.713Z,1007.07
2022-08-10T03:57:33.693Z,1007.07
2022-08-10T03:58:33.671Z,1007.07
2022-08-10T03:59:33.711Z,1007.13
2022-08-10T04:00:33.697Z,1007.10
2022-08-10T04:02:41.434Z,1007.04
2022-08-10T04:02:46.060Z,1007.11
2022-08-10T04:04:43.546Z,1007.09
2022-08-10T04:05:43.519Z,1007.05
2022-08-10T04:06:43.498Z,1007.07
2022-08-10T04:07:43.500Z,1007.15
2022-08-10T04:08:43.479Z,1007.14
2022-08-10T04:09:54.169Z,1007.08
2022-08-10T04:10:44.470Z,1007.14
2022-08-10T04:11:43.450Z,1007.13
2022-08-10T04:12:43.431Z,1007.17
2022-08-10T04:13:43.420Z,1007.13
2022-08-10T04:14:49.293Z,1007.09
2022-08-10T04:15:44.428Z,1007.12
2022-08-10T04:16:43.390Z,1007.18
2022-08-10T04:18:03.362Z,1007.19
2022-08-10T04:18:44.361Z,1007.13
2022-08-10T04:19:43.358Z,1007.21
2022-08-10T04:20:43.341Z,1007.19
2022-08-10T04:21:43.358Z,1007.17
2022-08-10T04:22:43.325Z,1007.21
2022-08-10T04:23:43.325Z,1007.21
2022-08-10T04:24:43.300Z,1007.12
2022-08-10T04:25:43.290Z,1007.21
2022-08-10T04:26:43.271Z,1007.22
2022-08-10T04:27:43.290Z,1007.25
2022-08-10T04:28:43.259Z,1007.21
2022-08-10T04:29:43.250Z,1007.21
2022-08-10T04:30:43.231Z,1007.26
2022-08-10T04:31:43.222Z,1007.26
2022-08-10T04:32:43.210Z,1007.20
2022-08-10T04:33:43.211Z,1007.20
2022-08-10T04:34:43.190Z,1007.23
2022-08-10T04:35:43.180Z,1007.24
2022-08-10T04:36:43.165Z,1007.24
2022-08-10T04:37:46.781Z,1007.27
2022-08-10T04:38:43.163Z,1007.25
2022-08-10T04:39:43.238Z,1007.31
2022-08-10T04:40:43.122Z,1007.23
2022-08-10T04:41:46.267Z,1007.29
2022-08-10T04:42:43.094Z,1007.30
2022-08-10T04:43:43.083Z,1007.30
2022-08-10T04:44:43.091Z,1007.29
2022-08-10T04:45:48.750Z,1007.29
2022-08-10T04:46:58.456Z,1007.27
2022-08-10T04:47:57.614Z,1007.34
2022-08-10T04:49:01.547Z,1007.30
2022-08-10T04:49:54.965Z,1007.30
2022-08-10T04:50:44.004Z,1007.26
2022-08-10T04:51:42.993Z,1007.32
2022-08-10T04:52:42.982Z,1007.24
2022-08-10T04:54:04.308Z,1007.26
2022-08-10T04:54:43.963Z,1007.25
2022-08-10T04:55:42.973Z,1007.28
2022-08-10T04:56:42.934Z,1007.34
2022-08-10T04:57:42.930Z,1007.31
2022-08-10T04:58:42.913Z,1007.25
2022-08-10T04:59:42.906Z,1007.27
2022-08-10T05:00:42.949Z,1007.33
2022-08-10T05:02:29.034Z,1007.32
2022-08-10T05:02:43.874Z,1007.28
2022-08-10T05:04:34.870Z,1007.40
2022-08-10T05:04:43.844Z,1007.36
2022-08-10T05:05:42.842Z,1007.31
2022-08-10T05:06:42.844Z,1007.35
2022-08-10T05:07:54.152Z,1007.35
2022-08-10T05:08:43.803Z,1007.28
2022-08-10T05:10:03.700Z,1007.31
2022-08-10T05:10:43.785Z,1007.31
2022-08-10T05:11:42.775Z,1007.34
2022-08-10T05:12:42.803Z,1007.30
2022-08-10T05:13:42.745Z,1007.29
2022-08-10T05:14:42.736Z,1007.29
2022-08-10T05:15:42.725Z,1007.29
2022-08-10T05:16:42.714Z,1007.31
2022-08-10T05:18:04.556Z,1007.38
2022-08-10T05:18:43.705Z,1007.31
2022-08-10T05:20:02.999Z,1007.33
2022-08-10T05:20:47.265Z,1007.31
2022-08-10T05:22:01.475Z,1007.37
2022-08-10T05:22:43.639Z,1007.36
2022-08-10T05:23:42.634Z,1007.39
2022-08-10T05:24:42.644Z,1007.27
2022-08-10T05:25:42.637Z,1007.26
2022-08-10T05:27:00.397Z,1007.31
2022-08-10T05:27:43.593Z,1007.36
2022-08-10T05:28:42.576Z,1007.34
2022-08-10T05:29:42.574Z,1007.31
2022-08-10T05:30:42.569Z,1007.35
2022-08-10T05:31:42.546Z,1007.32
2022-08-10T05:32:57.275Z,1007.29
2022-08-10T05:33:43.524Z,1007.30
2022-08-10T05:34:42.512Z,1007.35
2022-08-10T05:35:57.223Z,1007.35
2022-08-10T05:36:43.489Z,1007.35
2022-08-10T05:38:12.291Z,1007.38
2022-08-10T05:38:43.476Z,1007.32
2022-08-10T05:39:42.504Z,1007.34
2022-08-10T05:40:46.149Z,1007.26
2022-08-10T05:41:46.075Z,1007.34
2022-08-10T05:42:42.428Z,1007.29
2022-08-10T05:43:42.419Z,1007.30
2022-08-10T05:44:42.410Z,1007.32
2022-08-10T05:46:18.234Z,1007.36
2022-08-10T05:46:43.399Z,1007.36
2022-08-10T05:48:55.304Z,1007.38
2022-08-10T05:48:59.453Z,1007.37
2022-08-10T05:49:43.349Z,1007.39
2022-08-10T05:50:42.347Z,1007.35
2022-08-10T05:51:42.340Z,1007.36
2022-08-10T05:52:42.328Z,1007.37
2022-08-10T05:54:04.211Z,1007.32
2022-08-10T05:54:43.300Z,1007.39
2022-08-10T05:55:42.298Z,1007.43
2022-08-10T05:56:55.169Z,1007.40
2022-08-10T05:57:43.279Z,1007.42
2022-08-10T05:58:42.250Z,1007.39
2022-08-10T06:00:34.603Z,1007.42
2022-08-10T06:00:49.743Z,1007.42
2022-08-10T06:01:43.231Z,1007.45
2022-08-10T06:02:43.453Z,1007.51
2022-08-10T06:03:42.209Z,1007.50
2022-08-10T06:04:42.178Z,1007.47
2022-08-10T06:05:42.180Z,1007.47
2022-08-10T06:06:42.150Z,1007.44
2022-08-10T06:07:42.149Z,1007.43
2022-08-10T06:08:42.154Z,1007.47
2022-08-10T06:09:59.585Z,1007.45
2022-08-10T06:12:23.690Z,1007.47
2022-08-10T06:12:23.857Z,1007.49
2022-08-10T06:12:55.136Z,1007.53
2022-08-10T06:13:59.770Z,1007.55
2022-08-10T06:14:43.073Z,1007.51
2022-08-10T06:15:51.725Z,1007.64
2022-08-10T06:16:43.042Z,1007.64
2022-08-10T06:17:42.033Z,1007.66
2022-08-10T06:18:42.020Z,1007.57
2022-08-10T06:19:42.031Z,1007.60
2022-08-10T06:20:42.001Z,1007.59
2022-08-10T06:22:00.898Z,1007.62
2022-08-10T06:22:42.974Z,1007.64
2022-08-10T06:23:41.965Z,1007.62
2022-08-10T06:25:02.723Z,1007.70
2022-08-10T06:26:11.253Z,1007.68
2022-08-10T06:26:42.939Z,1007.64
2022-08-10T06:27:41.923Z,1007.70
2022-08-10T06:28:41.915Z,1007.75
2022-08-10T06:29:41.903Z,1007.70
2022-08-10T06:30:41.884Z,1007.67
2022-08-10T06:31:47.724Z,1007.70
2022-08-10T06:32:42.864Z,1007.71
2022-08-10T06:33:41.855Z,1007.67
2022-08-10T06:34:41.846Z,1007.75
2022-08-10T06:35:41.846Z,1007.72
2022-08-10T06:36:41.836Z,1007.67
2022-08-10T06:37:41.816Z,1007.70
2022-08-10T06:38:41.811Z,1007.68
2022-08-10T06:39:41.866Z,1007.65
2022-08-10T06:40:41.779Z,1007.63
2022-08-10T06:42:01.364Z,1007.67
2022-08-10T06:42:42.777Z,1007.70
2022-08-10T06:43:41.748Z,1007.63
2022-08-10T06:44:41.739Z,1007.65
2022-08-10T06:45:41.740Z,1007.66
2022-08-10T06:46:44.990Z,1007.66
2022-08-10T06:47:42.730Z,1007.71
2022-08-10T06:48:41.699Z,1007.71
2022-08-10T06:49:41.690Z,1007.73
2022-08-10T06:50:56.265Z,1007.73
2022-08-10T06:51:42.669Z,1007.71
2022-08-10T06:52:41.659Z,1007.71
2022-08-10T06:53:52.915Z,1007.77
2022-08-10T06:54:42.640Z,1007.70
2022-08-10T06:55:55.222Z,1007.80
2022-08-10T06:56:55.877Z,1007.81
2022-08-10T06:57:42.601Z,1007.82
2022-08-10T06:58:41.593Z,1007.79
2022-08-10T06:59:41.602Z,1007.80
2022-08-10T07:00:41.656Z,1007.77
2022-08-10T07:01:41.561Z,1007.78
2022-08-10T07:02:42.543Z,1007.78
2022-08-10T07:03:41.535Z,1007.82
2022-08-10T07:04:41.526Z,1007.83
2022-08-10T07:05:41.542Z,1007.85
2022-08-10T07:06:41.514Z,1007.80
2022-08-10T07:07:41.495Z,1007.82
2022-08-10T07:08:41.484Z,1007.78
2022-08-10T07:09:41.472Z,1007.87
2022-08-10T07:10:46.314Z,1007.85
2022-08-10T07:11:42.476Z,1007.84
2022-08-10T07:12:41.446Z,1007.86
2022-08-10T07:14:16.047Z,1007.81
2022-08-10T07:14:42.475Z,1007.86
2022-08-10T07:16:00.025Z,1007.83
2022-08-10T07:16:42.447Z,1007.85
2022-08-10T07:17:41.387Z,1007.85
2022-08-10T07:18:41.378Z,1007.81
2022-08-10T07:19:50.047Z,1007.82
2022-08-10T07:20:42.358Z,1007.88
2022-08-10T07:21:41.347Z,1007.84
2022-08-10T07:23:54.503Z,1007.85
2022-08-10T07:23:58.222Z,1007.90
2022-08-10T07:24:42.331Z,1007.87
2022-08-10T07:25:41.311Z,1007.92
2022-08-10T07:26:41.299Z,1007.96
2022-08-10T07:27:59.222Z,1007.95
2022-08-10T07:28:47.519Z,1008.02
2022-08-10T07:29:53.799Z,1008.00
2022-08-10T07:30:42.259Z,1007.99
2022-08-10T07:31:55.783Z,1008.05
2022-08-10T07:32:42.251Z,1008.03
2022-08-10T07:33:41.242Z,1007.95
2022-08-10T07:34:41.223Z,1007.99
2022-08-10T07:35:42.096Z,1007.96
2022-08-10T07:36:41.204Z,1007.99
2022-08-10T07:37:41.185Z,1008.01
2022-08-10T07:38:41.194Z,1007.95
2022-08-10T07:39:57.931Z,1007.95
2022-08-10T07:40:42.222Z,1007.96
2022-08-10T07:41:41.143Z,1008.01
2022-08-10T07:42:45.138Z,1007.94
2022-08-10T07:43:41.144Z,1007.99
2022-08-10T07:44:41.116Z,1008.02
2022-08-10T07:45:41.107Z,1008.03
2022-08-10T07:46:41.096Z,1008.06
2022-08-10T07:47:54.038Z,1008.05
2022-08-10T07:48:42.101Z,1007.97
2022-08-10T07:49:41.068Z,1008.06
2022-08-10T07:50:41.056Z,1008.11
2022-08-10T07:51:41.040Z,1008.04
2022-08-10T07:52:41.039Z,1008.06
2022-08-10T07:53:41.026Z,1008.09
2022-08-10T07:54:41.038Z,1008.14
2022-08-10T07:56:03.407Z,1008.14
2022-08-10T07:56:48.940Z,1008.15
2022-08-10T07:57:41.980Z,1008.15
2022-08-10T07:58:51.801Z,1008.19
2022-08-10T07:59:41.982Z,1008.11
2022-08-10T08:00:40.959Z,1008.14
2022-08-10T08:01:41.015Z,1008.10
2022-08-10T08:02:40.931Z,1008.22
2022-08-10T08:03:40.931Z,1008.20
2022-08-10T08:04:40.922Z,1008.17
2022-08-10T08:06:02.512Z,1008.16
2022-08-10T08:06:41.894Z,1008.17
2022-08-10T08:07:40.892Z,1008.16
2022-08-10T08:08:40.880Z,1008.17
2022-08-10T08:09:58.346Z,1008.13
2022-08-10T08:10:41.874Z,1008.14
2022-08-10T08:11:40.854Z,1008.19
2022-08-10T08:12:40.983Z,1008.13
2022-08-10T08:13:40.824Z,1008.15
2022-08-10T08:14:40.816Z,1008.12
2022-08-10T08:16:18.352Z,1008.14
2022-08-10T08:16:41.815Z,1008.15
2022-08-10T08:17:40.781Z,1008.17
2022-08-10T08:18:43.747Z,1008.15
2022-08-10T08:19:46.029Z,1008.10
2022-08-10T08:20:41.758Z,1008.19
2022-08-10T08:24:04.411Z,1008.14
2022-08-10T08:24:04.877Z,1008.16
2022-08-10T08:24:07.807Z,1008.18
2022-08-10T08:24:42.102Z,1008.19
2022-08-10T08:25:40.711Z,1008.17
2022-08-10T08:26:40.700Z,1008.16
2022-08-10T08:27:40.708Z,1008.10
2022-08-10T08:28:41.679Z,1008.08
2022-08-10T08:29:40.669Z,1008.10
2022-08-10T08:30:43.452Z,1008.13
2022-08-10T08:32:01.887Z,1008.17
2022-08-10T08:32:41.668Z,1008.15
2022-08-10T08:33:42.517Z,1008.02
2022-08-10T08:34:40.624Z,1008.12
2022-08-10T08:35:40.612Z,1008.14
2022-08-10T08:36:40.599Z,1008.15
2022-08-10T08:38:29.535Z,1008.11
2022-08-10T08:38:41.601Z,1008.09
2022-08-10T08:39:40.624Z,1008.02
2022-08-10T08:40:40.560Z,1008.04
2022-08-10T08:41:40.552Z,1008.08
2022-08-10T08:42:40.542Z,1008.07
2022-08-10T08:43:40.544Z,1008.05
2022-08-10T08:44:40.524Z,1008.10
2022-08-10T08:45:50.872Z,1008.07
2022-08-10T08:46:41.509Z,1008.02
2022-08-10T08:48:03.595Z,1008.08
2022-08-10T08:48:41.504Z,1008.06
2022-08-10T08:50:08.055Z,1008.04
2022-08-10T08:50:41.464Z,1008.01
2022-08-10T08:52:07.298Z,1008.04
2022-08-10T08:52:41.444Z,1008.06
2022-08-10T08:54:02.428Z,1008.05
2022-08-10T08:54:41.449Z,1008.06
2022-08-10T08:56:04.621Z,1008.02
2022-08-10T08:56:41.407Z,1008.05
2022-08-10T08:57:49.494Z,1008.08
2022-08-10T08:58:41.387Z,1008.03
2022-08-10T08:59:40.460Z,1007.99
2022-08-10T09:00:40.366Z,1008.03
2022-08-10T09:01:41.425Z,1007.97
2022-08-10T09:02:40.349Z,1008.00
2022-08-10T09:03:40.349Z,1007.99
2022-08-10T09:04:40.330Z,1007.91
2022-08-10T09:05:58.801Z,1007.97
2022-08-10T09:06:41.310Z,1007.97
2022-08-10T09:08:00.910Z,1007.90
2022-08-10T09:08:41.290Z,1007.90
2022-08-10T09:09:40.281Z,1007.92
2022-08-10T09:10:40.309Z,1007.95
2022-08-10T09:11:40.265Z,1007.92
2022-08-10T09:12:40.254Z,1007.87
2022-08-10T09:13:40.241Z,1007.91
2022-08-10T09:14:40.242Z,1007.89
2022-08-10T09:15:41.643Z,1007.83
2022-08-10T09:16:40.462Z,1007.85
2022-08-10T09:17:40.216Z,1007.81
2022-08-10T09:18:40.207Z,1007.83
2022-08-10T09:19:40.193Z,1007.82
2022-08-10T09:20:40.184Z,1007.90
2022-08-10T09:21:51.540Z,1007.85
2022-08-10T09:22:41.190Z,1007.81
2022-08-10T09:24:05.155Z,1007.86
2022-08-10T09:24:41.151Z,1007.79
2022-08-10T09:25:40.136Z,1007.86
2022-08-10T09:26:40.126Z,1007.84
2022-08-10T09:27:40.135Z,1007.76
2022-08-10T09:28:40.129Z,1007.77
2022-08-10T09:29:40.097Z,1007.74
2022-08-10T09:30:40.624Z,1007.82
2022-08-10T09:31:40.078Z,1007.78
2022-08-10T09:36:15.986Z,1007.76
2022-08-10T09:36:20.576Z,1007.78
2022-08-10T09:36:21.775Z,1007.75
2022-08-10T09:36:23.156Z,1007.78
2022-08-10T09:36:41.571Z,1007.74
2022-08-10T09:38:01.015Z,1007.73
2022-08-10T09:38:41.039Z,1007.75
2022-08-10T09:40:06.938Z,1007.73
2022-08-10T09:41:01.224Z,1007.69
2022-08-10T09:41:41.066Z,1007.72
2022-08-10T09:42:39.980Z,1007.71
2022-08-10T09:43:39.960Z,1007.65
2022-08-10T09:44:57.156Z,1007.72
2022-08-10T09:45:40.959Z,1007.68
2022-08-10T09:46:39.941Z,1007.67
2022-08-10T09:47:58.575Z,1007.65
2022-08-10T09:48:40.926Z,1007.51
2022-08-10T09:49:54.328Z,1007.30
2022-08-10T09:51:09.337Z,1007.19
2022-08-10T09:51:47.097Z,1007.14
2022-08-10T09:52:40.882Z,1007.08
2022-08-10T09:53:39.875Z,1007.07
2022-08-10T09:54:39.863Z,1006.96
2022-08-10T09:56:17.847Z,1007.00
2022-08-10T09:56:40.844Z,1006.98
2022-08-10T09:57:41.469Z,1006.99
2022-08-10T09:58:40.826Z,1006.97
2022-08-10T10:00:00.248Z,1006.93
2022-08-10T10:00:40.825Z,1007.06
2022-08-10T10:01:58.253Z,1006.95
2022-08-10T10:02:40.776Z,1006.97
2022-08-10T10:03:46.909Z,1006.97
2022-08-10T10:04:42.394Z,1006.88
2022-08-10T10:05:39.762Z,1006.92
2022-08-10T10:06:40.772Z,1006.81
2022-08-10T10:07:39.745Z,1006.84
2022-08-10T10:08:42.920Z,1006.87
2022-08-10T10:09:39.720Z,1006.87
2022-08-10T10:10:46.570Z,1006.85
2022-08-10T10:11:40.695Z,1006.86
2022-08-10T10:12:39.706Z,1006.86
2022-08-10T10:14:03.524Z,1006.91
2022-08-10T10:14:40.664Z,1006.75
2022-08-10T10:15:39.648Z,1006.73
2022-08-10T10:16:39.644Z,1006.67
2022-08-10T10:17:39.617Z,1006.73
2022-08-10T10:18:39.635Z,1006.72
2022-08-10T10:19:40.856Z,1006.64
2022-08-10T10:20:39.586Z,1006.65
2022-08-10T10:21:55.877Z,1006.63
2022-08-10T10:22:40.590Z,1006.60
2022-08-10T10:23:39.579Z,1006.57
2022-08-10T10:24:39.580Z,1006.63
2022-08-10T10:25:50.786Z,1006.56
2022-08-10T10:26:40.529Z,1006.46
2022-08-10T10:27:39.519Z,1006.43
2022-08-10T10:29:15.113Z,1006.49
2022-08-10T10:29:56.644Z,1006.47
2022-08-10T10:30:40.483Z,1006.49
2022-08-10T10:31:39.474Z,1006.50
2022-08-10T10:32:39.469Z,1006.56
2022-08-10T10:33:39.451Z,1006.54
2022-08-10T10:34:39.454Z,1006.50
2022-08-10T10:35:39.462Z,1006.49
2022-08-10T10:36:39.423Z,1006.44
2022-08-10T10:38:02.744Z,1006.46
2022-08-10T10:38:40.403Z,1006.46
2022-08-10T10:39:39.401Z,1006.37
2022-08-10T10:40:39.385Z,1006.40
2022-08-10T10:41:56.354Z,1006.44
2022-08-10T10:42:45.540Z,1006.48
2022-08-10T10:43:40.343Z,1006.41
2022-08-10T10:44:42.311Z,1006.48
2022-08-10T10:45:49.972Z,1006.49
2022-08-10T10:46:40.463Z,1006.38
2022-08-10T10:47:39.305Z,1006.40
2022-08-10T10:48:39.294Z,1006.36
2022-08-10T10:49:39.286Z,1006.40
2022-08-10T10:50:39.274Z,1006.31
2022-08-10T10:51:39.274Z,1006.36
2022-08-10T10:52:39.276Z,1006.31
2022-08-10T10:53:39.236Z,1006.36
2022-08-10T10:54:39.242Z,1006.26
2022-08-10T10:55:50.025Z,1006.33
2022-08-10T10:56:40.207Z,1006.23
2022-08-10T10:57:58.491Z,1006.26
2022-08-10T10:58:40.217Z,1006.27
2022-08-10T10:59:54.895Z,1006.28
2022-08-10T11:00:40.181Z,1006.27
2022-08-10T11:01:39.244Z,1006.25
2022-08-10T11:02:39.144Z,1006.23
2022-08-10T11:03:39.127Z,1006.26
2022-08-10T11:04:39.179Z,1006.17
2022-08-10T11:05:39.111Z,1006.15
2022-08-10T11:06:40.123Z,1006.23
2022-08-10T11:07:39.142Z,1006.23
2022-08-10T11:08:39.070Z,1006.19
2022-08-10T11:10:03.442Z,1006.14
2022-08-10T11:10:47.359Z,1006.12
2022-08-10T11:12:01.434Z,1006.19
2022-08-10T11:12:40.757Z,1006.16
2022-08-10T11:14:24.598Z,1006.06
2022-08-10T11:14:40.010Z,1005.97
2022-08-10T11:15:42.683Z,1005.99
2022-08-10T11:16:40.006Z,1006.03
2022-08-10T11:17:38.980Z,1006.00
2022-08-10T11:18:38.966Z,1005.99
2022-08-10T11:20:03.002Z,1005.98
2022-08-10T11:20:39.943Z,1005.94
2022-08-10T11:21:38.963Z,1005.96
2022-08-10T11:22:38.931Z,1005.96
2022-08-10T11:23:38.912Z,1005.95
2022-08-10T11:24:47.005Z,1005.93
2022-08-10T11:25:39.894Z,1005.92
2022-08-10T11:26:38.875Z,1005.90
2022-08-10T11:27:38.924Z,1005.87
2022-08-10T11:28:38.862Z,1005.88
2022-08-10T11:29:42.569Z,1005.88
2022-08-10T11:30:39.850Z,1005.96
2022-08-10T11:31:38.836Z,1005.94
2022-08-10T11:32:38.807Z,1005.92
2022-08-10T11:34:04.156Z,1005.94
2022-08-10T11:34:48.949Z,1005.96
2022-08-10T11:35:39.796Z,1006.02
2022-08-10T11:36:38.778Z,1005.92
2022-08-10T11:38:31.119Z,1005.94
2022-08-10T11:38:47.445Z,1005.92
2022-08-10T11:39:48.549Z,1006.03
2022-08-10T11:40:39.731Z,1005.87
2022-08-10T11:42:09.402Z,1005.85
2022-08-10T11:42:39.700Z,1005.84
2022-08-10T11:43:38.715Z,1005.84
2022-08-10T11:44:38.710Z,1005.77
2022-08-10T11:45:38.678Z,1005.84
2022-08-10T11:46:39.659Z,1005.82
2022-08-10T11:47:38.653Z,1005.91
2022-08-10T11:48:53.923Z,1005.98
2022-08-10T11:49:39.650Z,1005.85
2022-08-10T11:50:38.630Z,1005.85
2022-08-10T11:51:38.619Z,1005.86
2022-08-10T11:52:38.600Z,1005.74
2022-08-10T11:53:39.306Z,1005.67
2022-08-10T11:54:38.561Z,1005.69
2022-08-10T11:55:38.593Z,1005.71
2022-08-10T11:56:38.551Z,1005.66
2022-08-10T11:57:53.774Z,1005.69
2022-08-10T11:58:39.538Z,1005.68
2022-08-10T11:59:38.523Z,1005.73
2022-08-10T12:00:38.504Z,1005.61
2022-08-10T12:01:38.521Z,1005.67
2022-08-10T12:02:38.645Z,1005.67
2022-08-10T12:03:38.475Z,1005.69
2022-08-10T12:04:38.464Z,1005.78
2022-08-10T12:05:48.307Z,1005.73
2022-08-10T12:06:54.728Z,1005.71